Sheridan, WY (82801)

8:53 PM MST on February 22, 2017 (GMT -0700)
South Sheridan | | Change Station
Active Advisory: Winter Storm Warning

Elev 3770 ft 44.79 °N, 106.95 °W | Updated 12 seconds ago

Overcast
Overcast
33.4 °F
Feels Like 33 °F
N
0.0
Wind Variable Wind from SSE
Gusts 0.0 mph

Today
High -- | Low -- °F
--% Chance of Precip.
Yesterday
High -- | Low -- °F
Precip. -- in
Pressure 29.87 in
Visibility 1.8 miles
Clouds Few 200 ft
Mostly Cloudy 1000 ft
Overcast 1600 ft
Windchill 33 °F
Dew Point 33 °F
Humidity 99%
Rainfall 0.00 in
Snow Depth Not available.
6:56 AM 5:46 PM
Waning Crescent, 13% visible
SPECI KSHR 230339Z AUTO 13006KT 1 3/4SM BR FEW002 BKN010 OVC016 01/M01 A2987 RMK AO2 SNE39 P0004 T00061006
Pressure 29.87 in
Visibility 1.8 miles
Clouds Few 200 ft
Mostly Cloudy 1000 ft
Overcast 1600 ft
Windchill 33 °F
Dew Point 33 °F
Humidity 99%
Rainfall 0.00 in
Snow Depth Not available.
6:56 AM 5:46 PM
Waning Crescent, 13% visible
SPECI KSHR 230339Z AUTO 13006KT 1 3/4SM BR FEW002 BKN010 OVC016 01/M01 A2987 RMK AO2 SNE39 P0004 T00061006

Get Your Daily Forecast Email!

Thanks for signing up!

Be on the lookout for a verification email in your inbox.

You'll start receiving the daily forecast at 8 AM.

×

10-Day Weather Forecast

Almanac

Astronomy

Feb. 22, 2017 Rise Set
Actual Time
Civil Twilight
Nautical Twilight
Astronomical Twilight
Moon
Length of Visible Light
Length of Day
Tomorrow will be .
, % of the Moon is Illuminated

Today's Extremes

State Highs State Lows

Community

WunderPhotos

Upload Photos

1,962,540 photos uploaded!

WunderBlog® & News

Nearby

Air Quality

  Air Quality AQ Index Pollutant
Not available.

Snow Depth

Station Depth Elevation

Earthquake Activity

City Distance Mag. Time & Date
Minimum magnitude displayed is 2.5.

Coastal Water Temperatures

Place Temperature

Stations

Nearby Weather Stations

Station Location Temp. Windchill Dew Point Humidity Wind Precip. Elev Updated Type
                   

Watches & Warnings

Winter Storm Warning
Issued: 1:44 PM MST Feb. 22, 2017 – National Weather Service

... Winter Storm Warning in effect from midnight tonight to noon
MST Friday...

The National Weather Service in Billings has issued a Winter
Storm Warning for heavy snow... which is in effect from midnight
tonight to noon MST Friday.

* Impacts... poor travel conditions due to snow covered roads and
limited visibility, including portions of I-90. Cold and wet
weather may be hazardous to Young livestock.

* Timing... tonight through Friday morning.

* Snow accumulation... 5 to 10 inches.

Precautionary/preparedness actions...

A Winter Storm Warning means a significant amount of snow is
expected or occurring. This will make travel very hazardous or
impossible.